Ana Sayfa
METAR-TAF:

METAR-TAF

Havaalanları :

Plymouth Municipal Airport

Plymouth, Massachusetts, Amerika Birleşik Devletleri

Enlem: 41-54-31N, Boylam: 070-43-41W, yükseklik: 45 m

Güncel hava durumu gözlemi

Rapor saat 17:52 UTC de 51 dakika önce yapıldı.
Rüzgar doğudan 4 kt
Sıcaklık 21°C
Nem 78%
Basınç 1012 hPa
Görüş mesafesi: 16.1 km
1500 ft yükseklikte çok bulutlu

METAR: KPYM 191752Z AUTO 08004KT 10SM OVC015 21/17 A2988 RMK AO2 SLP117 T02060167 10206 20161 56007

Saat: 14:43 (18:43 UTC)


TAF: eksik

4.000'den fazla havaalanı için hava durumu gözlemleri ve tahminleri (METAR ve TAF raporları).

Kullanılabilir istasyonlar harita üzerinde sarı ve kırmızı noktalarla gösterilir.

İstasyonun adını görmek için fareyi noktanın üzerinde gezdirin.

Sonrasında hava gözlem ve tahminlerini görmek için tıklayın.

Haritayı değiştirmek için: yaklaştırmak için siyah artı işaretli yeşil düğmeye ve uzaklaştırmak için de eksi işaretli düğmeye hızla tıklayın; bitişik haritalar için yeşil okları kullanın.


METAR-TAF: